sensor_id;sensor_type;location;lat;lon;timestamp;P1;durP1;ratioP1;P2;durP2;ratioP2
21741;SDS011;11033;47.490;11.116;2023-04-24T00:00:50;1.40;;;1.27;;
21741;SDS011;11033;47.490;11.116;2023-04-24T00:03:16;3.55;;;1.00;;
21741;SDS011;11033;47.490;11.116;2023-04-24T00:05:41;1.33;;;1.10;;
21741;SDS011;11033;47.490;11.116;2023-04-24T00:08:07;1.90;;;0.95;;
21741;SDS011;11033;47.490;11.116;2023-04-24T00:10:33;1.98;;;1.10;;
21741;SDS011;11033;47.490;11.116;2023-04-24T00:12:58;2.17;;;1.33;;
21741;SDS011;11033;47.490;11.116;2023-04-24T00:15:23;1.10;;;0.93;;
21741;SDS011;11033;47.490;11.116;2023-04-24T00:17:49;3.72;;;0.75;;
21741;SDS011;11033;47.490;11.116;2023-04-24T00:20:14;1.10;;;0.87;;
21741;SDS011;11033;47.490;11.116;2023-04-24T00:22:39;5.10;;;0.98;;
21741;SDS011;11033;47.490;11.116;2023-04-24T00:25:05;0.60;;;0.60;;
21741;SDS011;11033;47.490;11.116;2023-04-24T00:27:31;0.90;;;0.60;;
21741;SDS011;11033;47.490;11.116;2023-04-24T00:29:56;2.17;;;0.75;;
21741;SDS011;11033;47.490;11.116;2023-04-24T00:32:21;1.80;;;1.00;;
21741;SDS011;11033;47.490;11.116;2023-04-24T00:34:47;1.75;;;0.75;;
21741;SDS011;11033;47.490;11.116;2023-04-24T00:37:12;3.20;;;1.08;;
21741;SDS011;11033;47.490;11.116;2023-04-24T00:39:37;1.53;;;1.00;;
21741;SDS011;11033;47.490;11.116;2023-04-24T00:42:03;1.45;;;1.10;;
21741;SDS011;11033;47.490;11.116;2023-04-24T00:44:30;2.67;;;1.02;;
21741;SDS011;11033;47.490;11.116;2023-04-24T00:46:56;1.02;;;0.98;;
21741;SDS011;11033;47.490;11.116;2023-04-24T00:49:22;2.33;;;0.93;;
21741;SDS011;11033;47.490;11.116;2023-04-24T00:51:47;2.42;;;0.95;;
21741;SDS011;11033;47.490;11.116;2023-04-24T00:54:14;0.77;;;0.73;;
21741;SDS011;11033;47.490;11.116;2023-04-24T00:56:40;3.75;;;0.80;;
21741;SDS011;11033;47.490;11.116;2023-04-24T00:59:07;2.10;;;0.93;;
21741;SDS011;11033;47.490;11.116;2023-04-24T01:01:33;1.83;;;0.80;;
21741;SDS011;11033;47.490;11.116;2023-04-24T01:03:58;3.22;;;0.95;;
21741;SDS011;11033;47.490;11.116;2023-04-24T01:06:24;2.50;;;0.70;;
21741;SDS011;11033;47.490;11.116;2023-04-24T01:08:52;2.05;;;0.73;;
21741;SDS011;11033;47.490;11.116;2023-04-24T01:11:19;2.00;;;0.75;;
21741;SDS011;11033;47.490;11.116;2023-04-24T01:13:46;1.42;;;0.63;;
21741;SDS011;11033;47.490;11.116;2023-04-24T01:16:13;0.55;;;0.50;;
21741;SDS011;11033;47.490;11.116;2023-04-24T01:18:42;2.40;;;0.80;;
21741;SDS011;11033;47.490;11.116;2023-04-24T01:21:08;1.67;;;0.60;;
21741;SDS011;11033;47.490;11.116;2023-04-24T01:23:34;3.90;;;0.77;;
21741;SDS011;11033;47.490;11.116;2023-04-24T01:25:59;0.70;;;0.60;;
21741;SDS011;11033;47.490;11.116;2023-04-24T01:28:25;2.17;;;0.60;;
21741;SDS011;11033;47.490;11.116;2023-04-24T01:30:51;0.63;;;0.63;;
21741;SDS011;11033;47.490;11.116;2023-04-24T01:33:17;0.80;;;0.70;;
21741;SDS011;11033;47.490;11.116;2023-04-24T01:35:43;4.82;;;1.00;;
21741;SDS011;11033;47.490;11.116;2023-04-24T01:38:08;1.40;;;0.47;;
21741;SDS011;11033;47.490;11.116;2023-04-24T01:40:33;2.15;;;0.52;;
21741;SDS011;11033;47.490;11.116;2023-04-24T01:42:59;1.85;;;0.55;;
21741;SDS011;11033;47.490;11.116;2023-04-24T01:45:25;0.75;;;0.70;;
21741;SDS011;11033;47.490;11.116;2023-04-24T01:47:50;0.60;;;0.60;;
21741;SDS011;11033;47.490;11.116;2023-04-24T01:50:16;0.60;;;0.60;;
21741;SDS011;11033;47.490;11.116;2023-04-24T01:52:42;3.65;;;0.70;;
21741;SDS011;11033;47.490;11.116;2023-04-24T01:55:08;0.93;;;0.60;;
21741;SDS011;11033;47.490;11.116;2023-04-24T01:57:34;1.88;;;0.60;;
21741;SDS011;11033;47.490;11.116;2023-04-24T02:00:00;3.35;;;0.60;;
21741;SDS011;11033;47.490;11.116;2023-04-24T02:02:25;3.08;;;0.60;;
21741;SDS011;11033;47.490;11.116;2023-04-24T02:04:55;2.30;;;0.80;;
21741;SDS011;11033;47.490;11.116;2023-04-24T02:07:21;2.72;;;0.70;;
21741;SDS011;11033;47.490;11.116;2023-04-24T02:09:46;0.93;;;0.60;;
21741;SDS011;11033;47.490;11.116;2023-04-24T02:12:12;0.95;;;0.60;;
21741;SDS011;11033;47.490;11.116;2023-04-24T02:14:37;1.83;;;0.63;;
21741;SDS011;11033;47.490;11.116;2023-04-24T02:17:03;1.53;;;0.53;;
21741;SDS011;11033;47.490;11.116;2023-04-24T02:19:28;3.13;;;0.82;;
21741;SDS011;11033;47.490;11.116;2023-04-24T02:21:53;2.95;;;1.05;;
21741;SDS011;11033;47.490;11.116;2023-04-24T02:24:19;1.50;;;0.73;;
21741;SDS011;11033;47.490;11.116;2023-04-24T02:26:44;0.60;;;0.50;;
21741;SDS011;11033;47.490;11.116;2023-04-24T02:29:09;1.42;;;0.60;;
21741;SDS011;11033;47.490;11.116;2023-04-24T02:31:35;2.25;;;0.60;;
21741;SDS011;11033;47.490;11.116;2023-04-24T02:34:00;0.40;;;0.40;;
21741;SDS011;11033;47.490;11.116;2023-04-24T02:36:26;0.73;;;0.73;;
21741;SDS011;11033;47.490;11.116;2023-04-24T02:38:51;1.50;;;0.73;;
21741;SDS011;11033;47.490;11.116;2023-04-24T02:41:16;1.33;;;0.73;;
21741;SDS011;11033;47.490;11.116;2023-04-24T02:43:42;0.82;;;0.60;;
21741;SDS011;11033;47.490;11.116;2023-04-24T02:46:07;1.60;;;0.70;;
21741;SDS011;11033;47.490;11.116;2023-04-24T02:48:32;1.88;;;0.88;;
21741;SDS011;11033;47.490;11.116;2023-04-24T02:50:57;1.15;;;0.50;;
21741;SDS011;11033;47.490;11.116;2023-04-24T02:53:23;0.95;;;0.70;;
21741;SDS011;11033;47.490;11.116;2023-04-24T02:55:48;0.45;;;0.38;;
21741;SDS011;11033;47.490;11.116;2023-04-24T02:58:14;0.55;;;0.40;;
21741;SDS011;11033;47.490;11.116;2023-04-24T03:00:39;0.40;;;0.40;;
21741;SDS011;11033;47.490;11.116;2023-04-24T03:03:05;0.52;;;0.40;;
21741;SDS011;11033;47.490;11.116;2023-04-24T03:05:30;0.30;;;0.30;;
21741;SDS011;11033;47.490;11.116;2023-04-24T03:07:56;0.80;;;0.70;;
21741;SDS011;11033;47.490;11.116;2023-04-24T03:10:21;0.30;;;0.28;;
21741;SDS011;11033;47.490;11.116;2023-04-24T03:12:49;1.73;;;0.47;;
21741;SDS011;11033;47.490;11.116;2023-04-24T03:15:15;0.80;;;0.50;;
21741;SDS011;11033;47.490;11.116;2023-04-24T03:17:41;0.30;;;0.30;;
21741;SDS011;11033;47.490;11.116;2023-04-24T03:20:07;1.85;;;0.30;;
21741;SDS011;11033;47.490;11.116;2023-04-24T03:22:33;0.40;;;0.35;;
21741;SDS011;11033;47.490;11.116;2023-04-24T03:24:59;0.30;;;0.30;;
21741;SDS011;11033;47.490;11.116;2023-04-24T03:27:24;0.32;;;0.32;;
21741;SDS011;11033;47.490;11.116;2023-04-24T03:29:49;0.60;;;0.50;;
21741;SDS011;11033;47.490;11.116;2023-04-24T03:32:20;0.40;;;0.40;;
21741;SDS011;11033;47.490;11.116;2023-04-24T03:34:46;0.40;;;0.40;;
21741;SDS011;11033;47.490;11.116;2023-04-24T03:37:12;0.52;;;0.43;;
21741;SDS011;11033;47.490;11.116;2023-04-24T03:39:37;0.70;;;0.60;;
21741;SDS011;11033;47.490;11.116;2023-04-24T03:42:03;2.27;;;0.43;;
21741;SDS011;11033;47.490;11.116;2023-04-24T03:44:28;1.77;;;0.35;;
21741;SDS011;11033;47.490;11.116;2023-04-24T03:46:53;1.17;;;0.40;;
21741;SDS011;11033;47.490;11.116;2023-04-24T03:49:19;0.52;;;0.52;;
21741;SDS011;11033;47.490;11.116;2023-04-24T03:51:44;0.73;;;0.60;;
21741;SDS011;11033;47.490;11.116;2023-04-24T03:54:10;0.43;;;0.43;;
21741;SDS011;11033;47.490;11.116;2023-04-24T03:56:35;0.38;;;0.32;;
21741;SDS011;11033;47.490;11.116;2023-04-24T03:59:00;2.72;;;0.88;;
21741;SDS011;11033;47.490;11.116;2023-04-24T04:01:26;1.65;;;0.70;;
21741;SDS011;11033;47.490;11.116;2023-04-24T04:03:53;0.77;;;0.40;;
21741;SDS011;11033;47.490;11.116;2023-04-24T04:06:18;1.63;;;0.60;;
21741;SDS011;11033;47.490;11.116;2023-04-24T04:08:44;1.48;;;0.50;;
21741;SDS011;11033;47.490;11.116;2023-04-24T04:11:09;2.10;;;1.13;;
21741;SDS011;11033;47.490;11.116;2023-04-24T04:13:34;0.80;;;0.80;;
21741;SDS011;11033;47.490;11.116;2023-04-24T04:16:00;0.90;;;0.83;;
21741;SDS011;11033;47.490;11.116;2023-04-24T04:18:25;0.75;;;0.70;;
21741;SDS011;11033;47.490;11.116;2023-04-24T04:20:50;0.40;;;0.40;;
21741;SDS011;11033;47.490;11.116;2023-04-24T04:23:15;2.03;;;0.53;;
21741;SDS011;11033;47.490;11.116;2023-04-24T04:25:41;1.87;;;0.60;;
21741;SDS011;11033;47.490;11.116;2023-04-24T04:28:06;1.08;;;0.50;;
21741;SDS011;11033;47.490;11.116;2023-04-24T04:30:31;1.80;;;0.50;;
21741;SDS011;11033;47.490;11.116;2023-04-24T04:32:57;0.82;;;0.70;;
21741;SDS011;11033;47.490;11.116;2023-04-24T04:35:22;1.23;;;0.60;;
21741;SDS011;11033;47.490;11.116;2023-04-24T04:37:48;2.83;;;0.47;;
21741;SDS011;11033;47.490;11.116;2023-04-24T04:40:13;1.00;;;0.50;;
21741;SDS011;11033;47.490;11.116;2023-04-24T04:42:38;0.87;;;0.50;;
21741;SDS011;11033;47.490;11.116;2023-04-24T04:45:05;1.20;;;0.80;;
21741;SDS011;11033;47.490;11.116;2023-04-24T04:47:34;0.50;;;0.45;;
21741;SDS011;11033;47.490;11.116;2023-04-24T04:49:59;4.63;;;1.17;;
21741;SDS011;11033;47.490;11.116;2023-04-24T04:52:25;3.10;;;1.27;;
21741;SDS011;11033;47.490;11.116;2023-04-24T04:54:50;0.90;;;0.85;;
21741;SDS011;11033;47.490;11.116;2023-04-24T04:57:16;2.27;;;1.27;;
21741;SDS011;11033;47.490;11.116;2023-04-24T04:59:41;3.33;;;0.80;;
21741;SDS011;11033;47.490;11.116;2023-04-24T05:02:06;0.82;;;0.60;;
21741;SDS011;11033;47.490;11.116;2023-04-24T05:04:32;1.00;;;0.65;;
21741;SDS011;11033;47.490;11.116;2023-04-24T05:06:57;1.10;;;0.73;;
21741;SDS011;11033;47.490;11.116;2023-04-24T05:09:22;0.70;;;0.70;;
21741;SDS011;11033;47.490;11.116;2023-04-24T05:11:48;1.03;;;0.80;;
21741;SDS011;11033;47.490;11.116;2023-04-24T05:14:13;1.00;;;0.50;;
21741;SDS011;11033;47.490;11.116;2023-04-24T05:16:38;0.73;;;0.60;;
21741;SDS011;11033;47.490;11.116;2023-04-24T05:19:05;0.65;;;0.60;;
21741;SDS011;11033;47.490;11.116;2023-04-24T05:21:30;1.85;;;0.40;;
21741;SDS011;11033;47.490;11.116;2023-04-24T05:23:56;0.47;;;0.43;;
21741;SDS011;11033;47.490;11.116;2023-04-24T05:26:22;0.40;;;0.40;;
21741;SDS011;11033;47.490;11.116;2023-04-24T05:28:47;0.60;;;0.60;;
21741;SDS011;11033;47.490;11.116;2023-04-24T05:31:13;0.63;;;0.60;;
21741;SDS011;11033;47.490;11.116;2023-04-24T05:33:38;0.70;;;0.70;;
21741;SDS011;11033;47.490;11.116;2023-04-24T05:36:03;1.33;;;0.80;;
21741;SDS011;11033;47.490;11.116;2023-04-24T05:38:30;1.63;;;0.70;;
21741;SDS011;11033;47.490;11.116;2023-04-24T05:40:55;0.70;;;0.70;;
21741;SDS011;11033;47.490;11.116;2023-04-24T05:43:21;1.43;;;0.90;;
21741;SDS011;11033;47.490;11.116;2023-04-24T05:45:46;4.70;;;0.77;;
21741;SDS011;11033;47.490;11.116;2023-04-24T05:48:11;0.70;;;0.70;;
21741;SDS011;11033;47.490;11.116;2023-04-24T05:50:36;1.13;;;0.73;;
21741;SDS011;11033;47.490;11.116;2023-04-24T05:53:02;1.35;;;0.70;;
21741;SDS011;11033;47.490;11.116;2023-04-24T05:55:27;0.85;;;0.75;;
21741;SDS011;11033;47.490;11.116;2023-04-24T05:57:53;2.38;;;0.55;;
21741;SDS011;11033;47.490;11.116;2023-04-24T06:00:18;1.10;;;0.60;;
21741;SDS011;11033;47.490;11.116;2023-04-24T06:02:45;0.70;;;0.43;;
21741;SDS011;11033;47.490;11.116;2023-04-24T06:05:11;0.47;;;0.47;;
21741;SDS011;11033;47.490;11.116;2023-04-24T06:07:36;0.55;;;0.45;;
21741;SDS011;11033;47.490;11.116;2023-04-24T06:10:02;0.47;;;0.47;;
21741;SDS011;11033;47.490;11.116;2023-04-24T06:12:27;2.22;;;0.63;;
21741;SDS011;11033;47.490;11.116;2023-04-24T06:14:53;0.60;;;0.60;;
21741;SDS011;11033;47.490;11.116;2023-04-24T06:17:19;2.50;;;0.70;;
21741;SDS011;11033;47.490;11.116;2023-04-24T06:19:44;0.98;;;0.57;;
21741;SDS011;11033;47.490;11.116;2023-04-24T06:22:09;0.70;;;0.70;;
21741;SDS011;11033;47.490;11.116;2023-04-24T06:24:35;0.80;;;0.77;;
21741;SDS011;11033;47.490;11.116;2023-04-24T06:27:01;0.95;;;0.65;;
21741;SDS011;11033;47.490;11.116;2023-04-24T06:29:26;2.92;;;0.63;;
21741;SDS011;11033;47.490;11.116;2023-04-24T06:31:52;0.93;;;0.70;;
21741;SDS011;11033;47.490;11.116;2023-04-24T06:34:17;0.57;;;0.57;;
21741;SDS011;11033;47.490;11.116;2023-04-24T06:36:43;2.27;;;0.90;;
21741;SDS011;11033;47.490;11.116;2023-04-24T06:39:08;0.90;;;0.88;;
21741;SDS011;11033;47.490;11.116;2023-04-24T06:41:34;2.88;;;0.75;;
21741;SDS011;11033;47.490;11.116;2023-04-24T06:43:59;4.18;;;0.80;;
21741;SDS011;11033;47.490;11.116;2023-04-24T06:46:24;1.40;;;0.93;;
21741;SDS011;11033;47.490;11.116;2023-04-24T06:48:52;4.45;;;2.25;;
21741;SDS011;11033;47.490;11.116;2023-04-24T06:51:20;4.95;;;2.75;;
21741;SDS011;11033;47.490;11.116;2023-04-24T06:53:49;3.63;;;1.50;;
21741;SDS011;11033;47.490;11.116;2023-04-24T06:56:14;1.60;;;1.00;;
21741;SDS011;11033;47.490;11.116;2023-04-24T06:58:40;1.40;;;0.80;;
21741;SDS011;11033;47.490;11.116;2023-04-24T07:01:05;0.88;;;0.82;;
21741;SDS011;11033;47.490;11.116;2023-04-24T07:03:31;1.35;;;1.25;;
21741;SDS011;11033;47.490;11.116;2023-04-24T07:05:56;1.65;;;1.10;;
21741;SDS011;11033;47.490;11.116;2023-04-24T07:08:22;1.90;;;0.60;;
21741;SDS011;11033;47.490;11.116;2023-04-24T07:10:49;1.23;;;0.73;;
21741;SDS011;11033;47.490;11.116;2023-04-24T07:13:15;1.75;;;0.70;;
21741;SDS011;11033;47.490;11.116;2023-04-24T07:15:40;2.47;;;0.70;;
21741;SDS011;11033;47.490;11.116;2023-04-24T07:18:06;0.82;;;0.82;;
21741;SDS011;11033;47.490;11.116;2023-04-24T07:20:31;3.80;;;0.90;;
21741;SDS011;11033;47.490;11.116;2023-04-24T07:22:58;2.25;;;0.57;;
21741;SDS011;11033;47.490;11.116;2023-04-24T07:25:23;2.28;;;0.73;;
21741;SDS011;11033;47.490;11.116;2023-04-24T07:27:48;2.95;;;0.93;;
21741;SDS011;11033;47.490;11.116;2023-04-24T07:30:14;1.48;;;0.70;;
21741;SDS011;11033;47.490;11.116;2023-04-24T07:32:39;0.95;;;0.82;;
21741;SDS011;11033;47.490;11.116;2023-04-24T07:35:04;3.45;;;0.90;;
21741;SDS011;11033;47.490;11.116;2023-04-24T07:37:30;1.17;;;0.70;;
21741;SDS011;11033;47.490;11.116;2023-04-24T07:39:56;1.38;;;0.98;;
21741;SDS011;11033;47.490;11.116;2023-04-24T07:42:21;0.82;;;0.63;;
21741;SDS011;11033;47.490;11.116;2023-04-24T07:44:47;1.25;;;0.85;;
21741;SDS011;11033;47.490;11.116;2023-04-24T07:47:13;0.65;;;0.65;;
21741;SDS011;11033;47.490;11.116;2023-04-24T07:49:41;0.60;;;0.60;;
21741;SDS011;11033;47.490;11.116;2023-04-24T07:52:06;1.00;;;0.90;;
21741;SDS011;11033;47.490;11.116;2023-04-24T07:54:32;1.95;;;0.82;;
21741;SDS011;11033;47.490;11.116;2023-04-24T07:56:57;0.63;;;0.60;;
21741;SDS011;11033;47.490;11.116;2023-04-24T07:59:22;2.55;;;0.80;;
21741;SDS011;11033;47.490;11.116;2023-04-24T08:01:47;0.98;;;0.75;;
21741;SDS011;11033;47.490;11.116;2023-04-24T08:04:13;1.60;;;0.83;;
21741;SDS011;11033;47.490;11.116;2023-04-24T08:06:38;1.80;;;0.88;;
21741;SDS011;11033;47.490;11.116;2023-04-24T08:09:03;1.33;;;1.10;;
21741;SDS011;11033;47.490;11.116;2023-04-24T08:11:29;1.45;;;0.95;;
21741;SDS011;11033;47.490;11.116;2023-04-24T08:13:54;2.97;;;0.70;;
21741;SDS011;11033;47.490;11.116;2023-04-24T08:16:19;3.95;;;0.93;;
21741;SDS011;11033;47.490;11.116;2023-04-24T08:18:45;1.83;;;1.15;;
21741;SDS011;11033;47.490;11.116;2023-04-24T08:21:10;5.88;;;1.30;;
21741;SDS011;11033;47.490;11.116;2023-04-24T08:23:37;6.18;;;2.38;;
21741;SDS011;11033;47.490;11.116;2023-04-24T08:26:03;4.25;;;2.03;;
21741;SDS011;11033;47.490;11.116;2023-04-24T08:28:28;2.97;;;1.60;;
21741;SDS011;11033;47.490;11.116;2023-04-24T08:30:53;5.72;;;2.50;;
21741;SDS011;11033;47.490;11.116;2023-04-24T08:33:20;1.70;;;1.38;;
21741;SDS011;11033;47.490;11.116;2023-04-24T08:35:46;5.35;;;1.80;;
21741;SDS011;11033;47.490;11.116;2023-04-24T08:38:12;2.30;;;1.38;;
21741;SDS011;11033;47.490;11.116;2023-04-24T08:40:37;4.73;;;4.03;;
21741;SDS011;11033;47.490;11.116;2023-04-24T08:43:03;3.28;;;2.00;;
21741;SDS011;11033;47.490;11.116;2023-04-24T08:45:28;2.33;;;1.55;;
21741;SDS011;11033;47.490;11.116;2023-04-24T08:47:54;1.85;;;1.50;;
21741;SDS011;11033;47.490;11.116;2023-04-24T08:50:20;5.32;;;1.55;;
21741;SDS011;11033;47.490;11.116;2023-04-24T08:52:47;2.47;;;1.40;;
21741;SDS011;11033;47.490;11.116;2023-04-24T08:55:15;1.30;;;1.17;;
21741;SDS011;11033;47.490;11.116;2023-04-24T08:57:43;2.55;;;1.40;;
21741;SDS011;11033;47.490;11.116;2023-04-24T09:00:10;1.40;;;1.15;;
21741;SDS011;11033;47.490;11.116;2023-04-24T09:02:35;1.92;;;0.88;;
21741;SDS011;11033;47.490;11.116;2023-04-24T09:05:01;1.00;;;0.88;;
21741;SDS011;11033;47.490;11.116;2023-04-24T09:07:28;1.27;;;1.05;;
21741;SDS011;11033;47.490;11.116;2023-04-24T09:09:57;1.58;;;1.00;;
21741;SDS011;11033;47.490;11.116;2023-04-24T09:12:24;2.25;;;0.98;;
21741;SDS011;11033;47.490;11.116;2023-04-24T09:14:49;2.28;;;1.00;;
21741;SDS011;11033;47.490;11.116;2023-04-24T09:17:15;4.53;;;0.93;;
21741;SDS011;11033;47.490;11.116;2023-04-24T09:19:40;0.80;;;0.80;;
21741;SDS011;11033;47.490;11.116;2023-04-24T09:22:06;1.40;;;1.15;;
21741;SDS011;11033;47.490;11.116;2023-04-24T09:24:36;1.63;;;0.80;;
21741;SDS011;11033;47.490;11.116;2023-04-24T09:27:01;1.45;;;1.10;;
21741;SDS011;11033;47.490;11.116;2023-04-24T09:29:27;0.70;;;0.70;;
21741;SDS011;11033;47.490;11.116;2023-04-24T09:31:53;0.52;;;0.52;;
21741;SDS011;11033;47.490;11.116;2023-04-24T09:34:20;0.68;;;0.68;;
21741;SDS011;11033;47.490;11.116;2023-04-24T09:36:48;2.05;;;1.00;;
21741;SDS011;11033;47.490;11.116;2023-04-24T09:39:14;0.90;;;0.90;;
21741;SDS011;11033;47.490;11.116;2023-04-24T09:41:47;1.70;;;0.90;;
21741;SDS011;11033;47.490;11.116;2023-04-24T09:44:20;1.08;;;0.70;;
21741;SDS011;11033;47.490;11.116;2023-04-24T09:46:50;0.77;;;0.70;;
21741;SDS011;11033;47.490;11.116;2023-04-24T09:49:16;0.77;;;0.77;;
21741;SDS011;11033;47.490;11.116;2023-04-24T09:51:47;4.80;;;2.78;;
21741;SDS011;11033;47.490;11.116;2023-04-24T09:54:16;1.55;;;0.88;;
21741;SDS011;11033;47.490;11.116;2023-04-24T09:56:43;3.90;;;1.60;;
21741;SDS011;11033;47.490;11.116;2023-04-24T09:59:15;0.97;;;0.93;;
21741;SDS011;11033;47.490;11.116;2023-04-24T10:01:42;0.90;;;0.90;;
21741;SDS011;11033;47.490;11.116;2023-04-24T10:04:22;0.88;;;0.88;;
21741;SDS011;11033;47.490;11.116;2023-04-24T10:09:17;0.70;;;0.70;;
21741;SDS011;11033;47.490;11.116;2023-04-24T10:11:44;0.88;;;0.88;;
21741;SDS011;11033;47.490;11.116;2023-04-24T10:14:18;1.85;;;1.20;;
21741;SDS011;11033;47.490;11.116;2023-04-24T10:16:48;1.10;;;1.10;;
21741;SDS011;11033;47.490;11.116;2023-04-24T10:19:15;2.50;;;1.20;;
21741;SDS011;11033;47.490;11.116;2023-04-24T10:21:43;1.23;;;0.80;;
21741;SDS011;11033;47.490;11.116;2023-04-24T10:24:15;1.17;;;0.93;;
21741;SDS011;11033;47.490;11.116;2023-04-24T10:26:46;1.95;;;0.95;;
21741;SDS011;11033;47.490;11.116;2023-04-24T10:29:13;0.93;;;0.93;;
21741;SDS011;11033;47.490;11.116;2023-04-24T10:31:40;1.02;;;1.02;;
21741;SDS011;11033;47.490;11.116;2023-04-24T10:34:06;0.80;;;0.80;;
21741;SDS011;11033;47.490;11.116;2023-04-24T10:36:34;1.33;;;1.00;;
21741;SDS011;11033;47.490;11.116;2023-04-24T10:39:02;1.33;;;1.02;;
21741;SDS011;11033;47.490;11.116;2023-04-24T10:41:31;3.35;;;1.10;;
21741;SDS011;11033;47.490;11.116;2023-04-24T10:46:34;1.15;;;1.15;;
21741;SDS011;11033;47.490;11.116;2023-04-24T10:49:03;4.10;;;0.98;;
21741;SDS011;11033;47.490;11.116;2023-04-24T10:51:45;1.23;;;1.10;;
21741;SDS011;11033;47.490;11.116;2023-04-24T10:54:24;1.20;;;1.10;;
21741;SDS011;11033;47.490;11.116;2023-04-24T10:59:45;3.72;;;1.30;;
21741;SDS011;11033;47.490;11.116;2023-04-24T11:02:15;2.05;;;0.93;;
21741;SDS011;11033;47.490;11.116;2023-04-24T11:04:41;1.85;;;1.02;;
21741;SDS011;11033;47.490;11.116;2023-04-24T11:07:08;1.00;;;1.00;;
21741;SDS011;11033;47.490;11.116;2023-04-24T11:09:34;1.15;;;1.00;;
21741;SDS011;11033;47.490;11.116;2023-04-24T11:12:05;2.53;;;1.20;;
21741;SDS011;11033;47.490;11.116;2023-04-24T11:20:06;2.53;;;1.10;;
21741;SDS011;11033;47.490;11.116;2023-04-24T11:22:34;1.02;;;0.90;;
21741;SDS011;11033;47.490;11.116;2023-04-24T11:25:01;1.08;;;1.08;;
21741;SDS011;11033;47.490;11.116;2023-04-24T11:27:29;2.22;;;1.50;;
21741;SDS011;11033;47.490;11.116;2023-04-24T11:32:29;1.97;;;1.87;;
21741;SDS011;11033;47.490;11.116;2023-04-24T11:34:59;1.33;;;1.15;;
21741;SDS011;11033;47.490;11.116;2023-04-24T11:40:03;1.77;;;1.20;;
21741;SDS011;11033;47.490;11.116;2023-04-24T11:42:34;2.63;;;1.10;;
21741;SDS011;11033;47.490;11.116;2023-04-24T11:45:01;1.30;;;1.20;;
21741;SDS011;11033;47.490;11.116;2023-04-24T11:47:27;2.55;;;0.90;;
21741;SDS011;11033;47.490;11.116;2023-04-24T11:49:54;0.82;;;0.82;;
21741;SDS011;11033;47.490;11.116;2023-04-24T11:52:19;1.07;;;1.00;;
21741;SDS011;11033;47.490;11.116;2023-04-24T11:54:48;1.58;;;1.10;;
21741;SDS011;11033;47.490;11.116;2023-04-24T11:57:14;1.67;;;1.05;;
21741;SDS011;11033;47.490;11.116;2023-04-24T11:59:40;1.55;;;0.95;;
21741;SDS011;11033;47.490;11.116;2023-04-24T12:02:05;0.83;;;0.80;;
21741;SDS011;11033;47.490;11.116;2023-04-24T12:04:38;2.63;;;1.60;;
21741;SDS011;11033;47.490;11.116;2023-04-24T12:07:05;1.48;;;1.38;;
21741;SDS011;11033;47.490;11.116;2023-04-24T12:09:49;0.90;;;0.90;;
21741;SDS011;11033;47.490;11.116;2023-04-24T12:12:20;0.90;;;0.90;;
21741;SDS011;11033;47.490;11.116;2023-04-24T12:14:53;2.00;;;0.90;;
21741;SDS011;11033;47.490;11.116;2023-04-24T12:17:26;2.75;;;1.10;;
21741;SDS011;11033;47.490;11.116;2023-04-24T12:19:56;1.13;;;1.00;;
21741;SDS011;11033;47.490;11.116;2023-04-24T12:22:23;1.20;;;1.10;;
21741;SDS011;11033;47.490;11.116;2023-04-24T12:24:58;1.00;;;1.00;;
21741;SDS011;11033;47.490;11.116;2023-04-24T12:27:25;1.65;;;1.10;;
21741;SDS011;11033;47.490;11.116;2023-04-24T12:29:52;0.80;;;0.80;;
21741;SDS011;11033;47.490;11.116;2023-04-24T12:32:18;0.93;;;0.90;;
21741;SDS011;11033;47.490;11.116;2023-04-24T12:34:43;1.58;;;0.82;;
21741;SDS011;11033;47.490;11.116;2023-04-24T12:37:10;1.23;;;0.85;;
21741;SDS011;11033;47.490;11.116;2023-04-24T12:39:36;0.90;;;0.90;;
21741;SDS011;11033;47.490;11.116;2023-04-24T12:42:01;1.00;;;1.00;;
21741;SDS011;11033;47.490;11.116;2023-04-24T12:44:33;1.10;;;1.10;;
21741;SDS011;11033;47.490;11.116;2023-04-24T12:47:02;2.67;;;1.30;;
21741;SDS011;11033;47.490;11.116;2023-04-24T12:49:28;1.17;;;1.08;;
21741;SDS011;11033;47.490;11.116;2023-04-24T12:51:55;1.20;;;1.10;;
21741;SDS011;11033;47.490;11.116;2023-04-24T12:54:20;1.00;;;0.82;;
21741;SDS011;11033;47.490;11.116;2023-04-24T12:56:46;1.23;;;1.10;;
21741;SDS011;11033;47.490;11.116;2023-04-24T12:59:11;1.60;;;1.07;;
21741;SDS011;11033;47.490;11.116;2023-04-24T13:01:36;1.10;;;1.10;;
21741;SDS011;11033;47.490;11.116;2023-04-24T13:04:01;1.48;;;1.30;;
21741;SDS011;11033;47.490;11.116;2023-04-24T13:06:27;3.63;;;2.58;;
21741;SDS011;11033;47.490;11.116;2023-04-24T13:08:52;1.45;;;1.08;;
21741;SDS011;11033;47.490;11.116;2023-04-24T13:11:19;1.02;;;1.02;;
21741;SDS011;11033;47.490;11.116;2023-04-24T13:13:46;1.38;;;1.27;;
21741;SDS011;11033;47.490;11.116;2023-04-24T13:16:11;1.52;;;1.42;;
21741;SDS011;11033;47.490;11.116;2023-04-24T13:18:37;1.25;;;1.13;;
21741;SDS011;11033;47.490;11.116;2023-04-24T13:21:02;1.27;;;0.93;;
21741;SDS011;11033;47.490;11.116;2023-04-24T13:23:27;1.25;;;1.20;;
21741;SDS011;11033;47.490;11.116;2023-04-24T13:25:53;1.30;;;1.15;;
21741;SDS011;11033;47.490;11.116;2023-04-24T13:28:20;2.58;;;0.95;;
21741;SDS011;11033;47.490;11.116;2023-04-24T13:30:45;2.00;;;1.00;;
21741;SDS011;11033;47.490;11.116;2023-04-24T13:33:10;1.67;;;1.45;;
21741;SDS011;11033;47.490;11.116;2023-04-24T13:35:36;1.23;;;0.83;;
21741;SDS011;11033;47.490;11.116;2023-04-24T13:38:01;2.95;;;1.10;;
21741;SDS011;11033;47.490;11.116;2023-04-24T13:40:30;1.27;;;1.17;;
21741;SDS011;11033;47.490;11.116;2023-04-24T13:42:56;3.40;;;1.13;;
21741;SDS011;11033;47.490;11.116;2023-04-24T13:45:21;1.85;;;1.20;;
21741;SDS011;11033;47.490;11.116;2023-04-24T13:47:46;1.43;;;1.13;;
21741;SDS011;11033;47.490;11.116;2023-04-24T13:50:12;3.37;;;1.63;;
21741;SDS011;11033;47.490;11.116;2023-04-24T13:52:37;2.03;;;1.63;;
21741;SDS011;11033;47.490;11.116;2023-04-24T13:55:02;1.20;;;1.10;;
21741;SDS011;11033;47.490;11.116;2023-04-24T13:57:28;1.52;;;1.42;;
21741;SDS011;11033;47.490;11.116;2023-04-24T13:59:53;1.88;;;1.60;;
21741;SDS011;11033;47.490;11.116;2023-04-24T14:02:18;2.80;;;1.85;;
21741;SDS011;11033;47.490;11.116;2023-04-24T14:04:44;2.17;;;1.67;;
21741;SDS011;11033;47.490;11.116;2023-04-24T14:07:09;2.55;;;1.70;;
21741;SDS011;11033;47.490;11.116;2023-04-24T14:09:34;3.08;;;1.55;;
21741;SDS011;11033;47.490;11.116;2023-04-24T14:12:00;2.75;;;1.27;;
21741;SDS011;11033;47.490;11.116;2023-04-24T14:14:26;1.88;;;1.50;;
21741;SDS011;11033;47.490;11.116;2023-04-24T14:16:52;2.78;;;1.75;;
21741;SDS011;11033;47.490;11.116;2023-04-24T14:19:17;1.58;;;1.30;;
21741;SDS011;11033;47.490;11.116;2023-04-24T14:21:42;2.00;;;1.30;;
21741;SDS011;11033;47.490;11.116;2023-04-24T14:24:08;1.40;;;1.17;;
21741;SDS011;11033;47.490;11.116;2023-04-24T14:26:33;3.05;;;1.75;;
21741;SDS011;11033;47.490;11.116;2023-04-24T14:28:59;1.30;;;1.20;;
21741;SDS011;11033;47.490;11.116;2023-04-24T14:31:25;1.55;;;1.17;;
21741;SDS011;11033;47.490;11.116;2023-04-24T14:33:50;3.15;;;1.88;;
21741;SDS011;11033;47.490;11.116;2023-04-24T14:36:15;1.85;;;1.70;;
21741;SDS011;11033;47.490;11.116;2023-04-24T14:38:41;1.58;;;1.48;;
21741;SDS011;11033;47.490;11.116;2023-04-24T14:41:06;2.67;;;1.50;;
21741;SDS011;11033;47.490;11.116;2023-04-24T14:43:35;2.80;;;1.60;;
21741;SDS011;11033;47.490;11.116;2023-04-24T14:46:01;1.73;;;1.52;;